Terminal Aerodrome Forecast
Issued by NWS

Home | Current Version | Previous Version | Text Only | Print | Product List | Glossary On
Versions: 1 2 3 4 5 6 7 8 9 10 11 12 13 14
000
FTUS46 KMTR 032331
TAFSTS
TAF
KSTS 032331Z 0400/0424 17010KT P6SM FEW150
     FM040400 VRB04KT P6SM FEW012
     FM040600 VRB03KT P6SM BKN010
     FM040900 VRB02KT P6SM OVC008
     FM041200 00000KT 5SM BR OVC004
     FM041600 VRB02KT P6SM BKN007
     FM041800 19003KT P6SM SKC
     FM042100 18008KT P6SM SKC=

USA.gov is the U.S. government's official web portal to all federal, state and local government web resources and services.